createdAt,value
2019-03-17T00:00:57.536Z,49.60
2019-03-17T00:03:36.187Z,41.33
2019-03-17T00:06:14.311Z,35.67
2019-03-17T00:08:51.463Z,27.30
2019-03-17T00:11:29.226Z,28.77
2019-03-17T00:14:07.850Z,20.07
2019-03-17T00:17:03.398Z,25.10
2019-03-17T00:19:43.133Z,36.40
2019-03-17T00:22:22.685Z,38.30
2019-03-17T00:25:09.193Z,32.27
2019-03-17T00:27:38.475Z,34.87
2019-03-17T00:30:17.048Z,43.70
2019-03-17T00:32:54.806Z,38.60
2019-03-17T00:35:32.629Z,40.97
2019-03-17T00:38:09.463Z,34.03
2019-03-17T00:40:51.979Z,29.77
2019-03-17T00:43:30.102Z,39.87
2019-03-17T00:46:09.043Z,44.63
2019-03-17T00:48:46.667Z,38.23
2019-03-17T00:51:22.908Z,37.57
2019-03-17T00:54:02.038Z,36.00
2019-03-17T00:56:39.689Z,39.87
2019-03-17T00:59:18.437Z,54.60
2019-03-17T01:01:56.758Z,49.23
2019-03-17T01:04:36.176Z,54.57
2019-03-17T01:07:14.227Z,52.37
2019-03-17T01:09:50.361Z,31.77
2019-03-17T01:12:28.613Z,31.00
2019-03-17T01:15:07.731Z,46.23
2019-03-17T01:17:46.794Z,49.87
2019-03-17T01:20:29.699Z,47.97
2019-03-17T01:23:06.492Z,48.07
2019-03-17T01:25:44.455Z,30.73
2019-03-17T01:28:23.963Z,30.73
2019-03-17T01:31:01.883Z,36.23
2019-03-17T01:33:40.630Z,35.07
2019-03-17T01:36:17.067Z,24.17
2019-03-17T01:38:55.887Z,23.50
2019-03-17T01:41:33.670Z,27.43
2019-03-17T01:44:12.226Z,22.03
2019-03-17T01:46:50.186Z,25.53
2019-03-17T01:49:28.303Z,23.83
2019-03-17T01:52:05.983Z,26.40
2019-03-17T01:54:44.153Z,23.77
2019-03-17T01:57:23.245Z,20.23
2019-03-17T02:00:01.836Z,27.27
2019-03-17T02:02:41.323Z,43.63
2019-03-17T02:05:22.256Z,35.67
2019-03-17T02:07:59.338Z,37.97
2019-03-17T02:10:37.730Z,20.47
2019-03-17T02:13:10.967Z,26.60
2019-03-17T02:15:48.617Z,32.07
2019-03-17T02:18:27.417Z,23.33
2019-03-17T02:21:05.696Z,26.30
2019-03-17T02:23:43.539Z,15.70
2019-03-17T02:26:22.058Z,21.90
2019-03-17T02:28:58.771Z,19.83
2019-03-17T02:31:36.539Z,26.37
2019-03-17T02:34:15.660Z,28.00
2019-03-17T02:36:54.146Z,25.80
2019-03-17T02:39:31.952Z,25.50
2019-03-17T02:42:10.378Z,18.17
2019-03-17T02:44:48.255Z,14.30
2019-03-17T02:47:26.246Z,28.13
2019-03-17T02:50:03.964Z,22.97
2019-03-17T02:52:42.130Z,26.70
2019-03-17T02:55:19.826Z,20.93
2019-03-17T02:57:58.118Z,16.50
2019-03-17T03:00:33.820Z,19.40
2019-03-17T03:03:09.742Z,21.70
2019-03-17T03:05:54.920Z,18.80
2019-03-17T03:08:28.272Z,22.43
2019-03-17T03:11:06.399Z,16.10
2019-03-17T03:13:44.945Z,24.00
2019-03-17T03:16:24.314Z,18.73
2019-03-17T03:19:01.449Z,13.87
2019-03-17T03:21:39.342Z,19.03
2019-03-17T03:24:17.536Z,13.57
2019-03-17T03:26:55.261Z,20.97
2019-03-17T03:29:34.585Z,21.37
2019-03-17T03:32:12.424Z,21.30
2019-03-17T03:34:52.380Z,21.57
2019-03-17T03:37:30.211Z,17.53
2019-03-17T03:40:09.065Z,19.37
2019-03-17T03:42:48.968Z,15.80
2019-03-17T03:45:27.368Z,27.97
2019-03-17T03:48:05.282Z,19.53
2019-03-17T03:50:46.335Z,15.93
2019-03-17T03:53:25.214Z,19.90
2019-03-17T03:56:04.051Z,27.23
2019-03-17T03:58:41.582Z,27.13
2019-03-17T04:01:35.831Z,23.83
2019-03-17T04:04:13.847Z,29.67
2019-03-17T04:06:50.020Z,25.13
2019-03-17T04:09:28.144Z,14.80
2019-03-17T04:12:06.999Z,31.50
2019-03-17T04:14:44.903Z,24.03
2019-03-17T04:17:23.393Z,16.77
2019-03-17T04:20:02.478Z,13.70
2019-03-17T04:22:40.318Z,11.90
2019-03-17T04:25:30.572Z,15.93
2019-03-17T04:28:08.998Z,10.27
2019-03-17T04:30:48.414Z,10.60
2019-03-17T04:33:26.248Z,11.60
2019-03-17T04:36:04.499Z,10.87
2019-03-17T04:38:43.997Z,14.87
2019-03-17T04:41:23.735Z,18.47
2019-03-17T04:44:02.486Z,13.73
2019-03-17T04:46:40.413Z,8.93
2019-03-17T04:49:18.230Z,14.57
2019-03-17T04:51:57.032Z,20.47
2019-03-17T04:54:35.211Z,16.70
2019-03-17T04:57:13.130Z,16.73
2019-03-17T04:59:51.481Z,19.93
2019-03-17T05:02:29.143Z,32.50
2019-03-17T05:05:09.433Z,28.37
2019-03-17T05:07:45.412Z,22.37
2019-03-17T05:10:24.034Z,33.07
2019-03-17T05:13:03.015Z,17.43
2019-03-17T05:15:41.285Z,16.13
2019-03-17T05:18:17.929Z,15.10
2019-03-17T05:20:56.154Z,16.37
2019-03-17T05:23:34.108Z,11.73
2019-03-17T05:26:34.359Z,10.37
2019-03-17T05:29:11.993Z,16.27
2019-03-17T05:31:48.731Z,12.73
2019-03-17T05:34:26.596Z,22.50
2019-03-17T05:37:06.681Z,28.40
2019-03-17T05:39:46.407Z,22.37
2019-03-17T05:42:25.611Z,16.33
2019-03-17T05:45:04.389Z,9.40
2019-03-17T05:47:42.782Z,19.00
2019-03-17T05:50:20.586Z,12.87
2019-03-17T05:52:59.036Z,11.67
2019-03-17T05:55:36.849Z,12.47
2019-03-17T05:58:15.232Z,11.33
2019-03-17T06:00:56.303Z,11.53
2019-03-17T06:03:34.762Z,14.37
2019-03-17T06:06:12.712Z,18.17
2019-03-17T06:08:51.434Z,8.93
2019-03-17T06:11:29.326Z,16.17
2019-03-17T06:14:12.162Z,8.73
2019-03-17T06:16:51.261Z,16.63
2019-03-17T06:19:31.097Z,13.50
2019-03-17T06:22:09.685Z,14.47
2019-03-17T06:24:48.829Z,12.37
2019-03-17T06:27:26.854Z,13.80
2019-03-17T06:30:29.866Z,15.20
2019-03-17T06:33:09.410Z,18.87
2019-03-17T06:35:48.275Z,22.47
2019-03-17T06:38:46.457Z,25.30
2019-03-17T06:41:25.065Z,18.40
2019-03-17T06:44:03.018Z,18.00
2019-03-17T06:46:41.288Z,15.23
2019-03-17T06:49:20.983Z,15.00
2019-03-17T06:52:02.338Z,13.97
2019-03-17T06:54:53.082Z,9.83
2019-03-17T06:57:33.691Z,14.17
2019-03-17T07:00:12.198Z,12.97
2019-03-17T07:02:50.927Z,29.27
2019-03-17T07:05:31.172Z,28.63
2019-03-17T07:08:11.637Z,16.40
2019-03-17T07:10:47.762Z,9.57
2019-03-17T07:13:26.251Z,12.70
2019-03-17T07:16:13.444Z,7.10
2019-03-17T07:18:52.420Z,9.97
2019-03-17T07:21:32.591Z,11.47
2019-03-17T07:24:16.015Z,19.00
2019-03-17T07:26:53.805Z,25.07
2019-03-17T07:29:34.262Z,15.00
2019-03-17T07:32:33.932Z,26.80
2019-03-17T07:35:25.093Z,30.47
2019-03-17T07:38:03.136Z,34.00
2019-03-17T07:40:41.931Z,27.07
2019-03-17T07:43:19.921Z,21.40
2019-03-17T07:46:00.510Z,11.13
2019-03-17T07:48:41.066Z,14.63
2019-03-17T07:51:19.520Z,9.90
2019-03-17T07:53:57.934Z,11.13
2019-03-17T07:56:36.552Z,11.73
2019-03-17T07:59:15.663Z,12.63
2019-03-17T08:01:56.479Z,12.87
2019-03-17T08:04:42.879Z,9.80
2019-03-17T08:07:19.519Z,17.40
2019-03-17T08:09:56.761Z,13.17
2019-03-17T08:12:37.739Z,7.73
2019-03-17T08:15:15.793Z,13.07
2019-03-17T08:17:54.900Z,14.53
2019-03-17T08:20:35.078Z,12.50
2019-03-17T08:23:13.178Z,13.40
2019-03-17T08:25:51.848Z,9.27
2019-03-17T08:28:56.867Z,9.57
2019-03-17T08:31:38.278Z,7.43
2019-03-17T08:34:19.320Z,8.97
2019-03-17T08:37:00.099Z,11.23
2019-03-17T08:39:41.137Z,8.33
2019-03-17T08:42:21.851Z,11.30
2019-03-17T08:45:04.388Z,9.23
2019-03-17T08:47:57.266Z,10.47
2019-03-17T08:50:29.910Z,8.00
2019-03-17T08:53:09.584Z,14.50
2019-03-17T08:55:45.868Z,5.73
2019-03-17T08:58:25.892Z,9.13
2019-03-17T09:01:04.855Z,9.27
2019-03-17T09:03:45.922Z,8.03
2019-03-17T09:06:44.243Z,10.20
2019-03-17T09:09:22.274Z,12.13
2019-03-17T09:11:59.607Z,15.33
2019-03-17T09:14:39.022Z,6.20
2019-03-17T09:17:18.046Z,11.83
2019-03-17T09:19:59.749Z,14.17
2019-03-17T09:22:39.198Z,9.37
2019-03-17T09:25:17.502Z,7.20
2019-03-17T09:27:57.978Z,8.17
2019-03-17T09:30:48.715Z,10.50
2019-03-17T09:33:27.950Z,9.37
2019-03-17T09:36:09.868Z,14.27
2019-03-17T09:38:51.624Z,9.97
2019-03-17T09:41:30.896Z,7.70
2019-03-17T09:44:32.596Z,13.10
2019-03-17T09:47:21.491Z,11.73
2019-03-17T09:50:04.070Z,14.13
2019-03-17T09:53:01.684Z,11.67
2019-03-17T09:55:37.910Z,13.63
2019-03-17T09:58:31.212Z,9.60
2019-03-17T10:01:12.334Z,12.30
2019-03-17T10:04:17.820Z,21.70
2019-03-17T10:07:29.809Z,14.87
2019-03-17T10:10:04.949Z,12.53
2019-03-17T10:12:47.663Z,19.77
2019-03-17T10:15:42.172Z,14.47
2019-03-17T10:18:40.509Z,9.10
2019-03-17T10:21:20.885Z,9.13
2019-03-17T10:24:00.938Z,12.47
2019-03-17T10:26:59.521Z,12.03
2019-03-17T10:29:41.359Z,10.70
2019-03-17T10:32:35.129Z,7.57
2019-03-17T10:35:25.515Z,7.37
2019-03-17T10:38:09.458Z,11.27
2019-03-17T10:41:11.854Z,7.63
2019-03-17T10:44:16.679Z,12.37
2019-03-17T10:47:02.486Z,11.63
2019-03-17T10:49:45.777Z,10.00
2019-03-17T10:52:35.049Z,7.20
2019-03-17T10:55:17.189Z,10.27
2019-03-17T10:57:51.724Z,6.80
2019-03-17T11:00:34.679Z,9.43
2019-03-17T11:03:17.132Z,8.37
2019-03-17T11:06:04.140Z,9.37
2019-03-17T11:08:57.310Z,13.43
2019-03-17T11:11:37.075Z,11.00
2019-03-17T11:14:27.777Z,10.43
2019-03-17T11:17:10.745Z,12.93
2019-03-17T11:19:55.912Z,11.07
2019-03-17T11:22:37.870Z,8.23
2019-03-17T11:25:40.051Z,11.53
2019-03-17T11:28:19.025Z,9.77
2019-03-17T11:31:37.897Z,8.57
2019-03-17T11:34:28.733Z,12.50
2019-03-17T11:37:13.159Z,11.83
2019-03-17T11:40:27.916Z,9.27
2019-03-17T11:43:30.181Z,10.93
2019-03-17T11:46:08.464Z,11.10
2019-03-17T11:48:48.889Z,14.47
2019-03-17T11:51:26.707Z,12.23
2019-03-17T11:54:16.626Z,10.23
2019-03-17T11:57:08.679Z,8.67
2019-03-17T11:59:53.699Z,10.63
2019-03-17T12:02:47.127Z,11.60
2019-03-17T12:05:52.907Z,16.30
2019-03-17T12:12:00.354Z,10.63
2019-03-17T12:14:45.246Z,10.50
2019-03-17T12:17:23.938Z,10.57
2019-03-17T12:20:13.949Z,12.00
2019-03-17T12:26:14.831Z,11.47
2019-03-17T12:28:58.527Z,14.30
2019-03-17T12:31:40.641Z,11.87
2019-03-17T12:34:27.572Z,12.83
2019-03-17T12:37:27.651Z,16.57
2019-03-17T12:40:12.684Z,13.73
2019-03-17T12:42:54.157Z,12.53
2019-03-17T12:45:38.438Z,13.93
2019-03-17T12:48:20.193Z,13.73
2019-03-17T12:50:57.859Z,10.23
2019-03-17T12:53:41.889Z,10.47
2019-03-17T12:56:44.769Z,11.17
2019-03-17T12:59:28.960Z,11.93
2019-03-17T13:02:11.036Z,12.50
2019-03-17T13:04:56.525Z,10.10
2019-03-17T13:07:39.663Z,12.23
2019-03-17T13:10:43.989Z,15.93
2019-03-17T13:13:39.753Z,12.33
2019-03-17T13:16:26.267Z,13.40
2019-03-17T13:19:17.919Z,11.60
2019-03-17T13:22:07.854Z,9.53
2019-03-17T13:24:51.724Z,14.47
2019-03-17T13:27:37.107Z,12.83
2019-03-17T13:30:21.681Z,10.30
2019-03-17T13:33:02.771Z,7.63
2019-03-17T13:35:41.141Z,12.00
2019-03-17T13:38:23.639Z,13.93
2019-03-17T13:41:02.330Z,15.17
2019-03-17T13:43:37.752Z,8.57
2019-03-17T13:46:22.667Z,10.33
2019-03-17T13:49:05.090Z,11.83
2019-03-17T13:51:45.496Z,13.07
2019-03-17T13:54:20.693Z,15.07
2019-03-17T13:56:55.203Z,13.13
2019-03-17T13:59:33.349Z,9.17
2019-03-17T14:02:36.433Z,11.47
2019-03-17T14:05:14.553Z,10.33
2019-03-17T14:07:52.548Z,15.83
2019-03-17T14:11:06.467Z,10.93
2019-03-17T14:13:54.438Z,17.07
2019-03-17T14:16:39.007Z,10.87
2019-03-17T14:19:14.663Z,14.93
2019-03-17T14:21:58.846Z,12.73
2019-03-17T14:24:37.969Z,14.00
2019-03-17T14:27:38.541Z,15.40
2019-03-17T14:30:26.235Z,11.93
2019-03-17T14:33:10.512Z,13.80
2019-03-17T14:35:51.129Z,14.90
2019-03-17T14:38:30.593Z,11.23
2019-03-17T14:41:15.650Z,22.70
2019-03-17T14:43:54.094Z,15.50
2019-03-17T14:46:35.662Z,12.20
2019-03-17T14:49:13.524Z,14.00
2019-03-17T14:52:15.442Z,17.07
2019-03-17T14:55:13.179Z,12.60
2019-03-17T14:57:58.069Z,13.90
2019-03-17T15:00:41.304Z,16.00
2019-03-17T15:03:24.940Z,18.60
2019-03-17T15:06:03.660Z,20.30
2019-03-17T15:08:43.439Z,13.60
2019-03-17T15:11:36.453Z,15.57
2019-03-17T15:14:26.635Z,12.90
2019-03-17T15:17:16.825Z,19.07
2019-03-17T15:20:10.030Z,14.40
2019-03-17T15:22:50.891Z,18.53
2019-03-17T15:25:32.008Z,17.33
2019-03-17T15:28:23.093Z,14.20
2019-03-17T15:31:11.362Z,16.17
2019-03-17T15:33:41.558Z,13.27
2019-03-17T15:36:23.130Z,13.63
2019-03-17T15:39:05.891Z,14.00
2019-03-17T15:41:48.691Z,21.13
2019-03-17T15:44:29.049Z,18.10
2019-03-17T15:47:34.193Z,16.77
2019-03-17T15:50:40.044Z,14.17
2019-03-17T15:53:21.394Z,19.83
2019-03-17T15:56:00.051Z,16.03
2019-03-17T15:58:52.903Z,17.90
2019-03-17T16:01:31.017Z,11.90
2019-03-17T16:04:05.077Z,16.60
2019-03-17T16:06:45.242Z,17.33
2019-03-17T16:09:24.211Z,17.07
2019-03-17T16:12:03.446Z,17.17
2019-03-17T16:14:41.936Z,18.50
2019-03-17T16:17:18.513Z,17.40
2019-03-17T16:20:15.659Z,19.30
2019-03-17T16:22:55.174Z,17.70
2019-03-17T16:25:34.636Z,20.33
2019-03-17T16:28:16.513Z,15.80
2019-03-17T16:31:06.138Z,17.23
2019-03-17T16:33:40.034Z,27.27
2019-03-17T16:36:23.950Z,17.30
2019-03-17T16:39:04.062Z,32.63
2019-03-17T16:41:48.233Z,24.03
2019-03-17T16:44:29.345Z,20.20
2019-03-17T16:47:33.935Z,20.17
2019-03-17T16:50:32.391Z,20.90
2019-03-17T16:53:17.151Z,29.37
2019-03-17T16:55:54.453Z,25.03
2019-03-17T16:58:36.554Z,23.47
2019-03-17T17:01:14.644Z,21.77
2019-03-17T17:03:56.982Z,23.73
2019-03-17T17:06:35.901Z,25.17
2019-03-17T17:09:10.972Z,19.17
2019-03-17T17:11:57.067Z,27.80
2019-03-17T17:14:33.646Z,20.07
2019-03-17T17:17:11.992Z,23.27
2019-03-17T17:19:54.491Z,21.23
2019-03-17T17:22:46.408Z,23.37
2019-03-17T17:25:26.689Z,26.77
2019-03-17T17:28:08.490Z,24.03
2019-03-17T17:30:52.964Z,27.57
2019-03-17T17:33:53.977Z,29.77
2019-03-17T17:37:00.129Z,29.60
2019-03-17T17:39:37.560Z,28.47
2019-03-17T17:42:24.084Z,33.93
2019-03-17T17:45:04.947Z,31.50
2019-03-17T17:47:53.911Z,27.87
2019-03-17T17:50:32.733Z,30.07
2019-03-17T17:53:16.458Z,39.13
2019-03-17T17:55:54.763Z,28.20
2019-03-17T17:58:33.490Z,33.77
2019-03-17T18:01:08.259Z,36.97
2019-03-17T18:03:51.614Z,35.87
2019-03-17T18:06:39.751Z,29.73
2019-03-17T18:09:43.552Z,34.90
2019-03-17T18:15:28.774Z,31.10
2019-03-17T18:18:13.513Z,27.30
2019-03-17T18:20:55.944Z,34.23
2019-03-17T18:23:56.370Z,24.80
2019-03-17T18:26:31.261Z,25.90
2019-03-17T18:29:26.127Z,36.43
2019-03-17T18:32:09.814Z,31.60
2019-03-17T18:35:06.843Z,27.97
2019-03-17T18:37:47.443Z,29.63
2019-03-17T18:40:32.841Z,23.10
2019-03-17T18:43:15.371Z,27.77
2019-03-17T18:45:55.990Z,36.50
2019-03-17T18:48:35.699Z,38.17
2019-03-17T18:51:21.367Z,31.73
2019-03-17T18:54:08.495Z,30.63
2019-03-17T18:56:49.499Z,35.73
2019-03-17T18:59:28.810Z,26.50
2019-03-17T19:02:12.268Z,42.80
2019-03-17T19:04:50.908Z,29.87
2019-03-17T19:07:47.871Z,36.50
2019-03-17T19:10:28.456Z,32.40
2019-03-17T19:13:05.316Z,31.73
2019-03-17T19:15:46.814Z,28.73
2019-03-17T19:18:35.189Z,31.53
2019-03-17T19:21:13.571Z,35.37
2019-03-17T19:24:08.744Z,24.37
2019-03-17T19:27:11.492Z,25.17
2019-03-17T19:29:57.273Z,25.93
2019-03-17T19:32:33.390Z,37.40
2019-03-17T19:35:14.653Z,39.07
2019-03-17T19:37:53.112Z,39.93
2019-03-17T19:40:30.890Z,31.37
2019-03-17T19:43:10.294Z,47.47
2019-03-17T19:46:22.812Z,36.83
2019-03-17T19:49:19.251Z,35.10
2019-03-17T19:52:02.980Z,34.80
2019-03-17T19:54:42.051Z,32.13
2019-03-17T19:57:27.821Z,31.77
2019-03-17T20:00:36.731Z,35.30
2019-03-17T20:03:18.583Z,30.57
2019-03-17T20:06:06.927Z,29.90
2019-03-17T20:09:05.772Z,31.10
2019-03-17T20:11:45.092Z,33.67
2019-03-17T20:14:24.196Z,33.27
2019-03-17T20:17:10.275Z,39.37
2019-03-17T20:20:03.100Z,35.90
2019-03-17T20:22:46.003Z,30.23
2019-03-17T20:25:22.786Z,34.60
2019-03-17T20:28:18.716Z,31.40
2019-03-17T20:30:57.930Z,34.13
2019-03-17T20:33:49.144Z,53.97
2019-03-17T20:36:26.833Z,36.07
2019-03-17T20:39:25.833Z,36.40
2019-03-17T20:42:04.101Z,35.27
2019-03-17T20:44:51.299Z,30.17
2019-03-17T20:47:31.601Z,32.20
2019-03-17T20:50:14.989Z,32.03
2019-03-17T20:52:52.980Z,37.33
2019-03-17T20:55:34.334Z,36.70
2019-03-17T20:58:13.828Z,48.50
2019-03-17T21:00:55.246Z,45.80
2019-03-17T21:03:36.588Z,30.60
2019-03-17T21:06:19.082Z,24.60
2019-03-17T21:09:00.112Z,28.23
2019-03-17T21:11:39.618Z,24.33
2019-03-17T21:14:27.309Z,29.23
2019-03-17T21:17:08.007Z,46.77
2019-03-17T21:19:51.622Z,23.47
2019-03-17T21:22:33.555Z,32.40
2019-03-17T21:25:11.558Z,34.70
2019-03-17T21:27:50.183Z,29.43
2019-03-17T21:30:29.107Z,55.13
2019-03-17T21:33:07.917Z,31.23
2019-03-17T21:35:47.638Z,29.43
2019-03-17T21:38:26.800Z,26.97
2019-03-17T21:41:07.302Z,38.00
2019-03-17T21:43:59.404Z,30.53
2019-03-17T21:46:30.957Z,26.50
2019-03-17T21:49:09.390Z,31.00
2019-03-17T21:51:53.233Z,47.53
2019-03-17T21:54:48.820Z,27.33
2019-03-17T21:57:27.156Z,27.10
2019-03-17T22:00:32.588Z,40.87
2019-03-17T22:03:19.956Z,30.37
2019-03-17T22:05:57.858Z,26.50
2019-03-17T22:08:40.487Z,26.80
2019-03-17T22:11:15.134Z,21.90
2019-03-17T22:13:56.017Z,25.23
2019-03-17T22:16:29.747Z,27.57
2019-03-17T22:19:10.946Z,22.47
2019-03-17T22:21:49.279Z,26.07
2019-03-17T22:24:48.467Z,24.83
2019-03-17T22:27:26.949Z,25.53
2019-03-17T22:30:17.699Z,40.07
2019-03-17T22:32:59.925Z,28.13
2019-03-17T22:35:35.502Z,40.00
2019-03-17T22:38:19.784Z,24.60
2019-03-17T22:41:12.079Z,21.13
2019-03-17T22:43:46.187Z,31.60
2019-03-17T22:46:19.958Z,23.90
2019-03-17T22:48:54.257Z,29.07
2019-03-17T22:51:28.360Z,33.30
2019-03-17T22:54:06.305Z,20.67
2019-03-17T22:56:40.293Z,27.27
2019-03-17T22:59:14.703Z,20.90
2019-03-17T23:01:48.383Z,23.60
2019-03-17T23:04:22.833Z,20.67
2019-03-17T23:07:07.288Z,29.33
2019-03-17T23:09:41.523Z,26.90
2019-03-17T23:12:17.695Z,21.53
2019-03-17T23:14:52.040Z,22.37
2019-03-17T23:17:26.976Z,22.07
2019-03-17T23:20:01.159Z,22.80
2019-03-17T23:22:35.350Z,29.87
2019-03-17T23:25:10.505Z,18.10
2019-03-17T23:27:47.217Z,29.67
2019-03-17T23:30:22.583Z,21.73
2019-03-17T23:32:57.266Z,44.07
2019-03-17T23:35:31.491Z,27.40
2019-03-17T23:38:05.122Z,26.60
2019-03-17T23:40:39.621Z,20.77
2019-03-17T23:43:13.445Z,24.40
2019-03-17T23:45:49.220Z,25.40
2019-03-17T23:48:23.132Z,16.97
2019-03-17T23:50:57.356Z,23.07
2019-03-17T23:53:33.417Z,17.63
2019-03-17T23:56:10.088Z,16.50
2019-03-17T23:58:43.976Z,15.97
